Time;durP1;ratioP1;P1;durP2;ratioP2;P2;SDS_P1;SDS_P2;PMS_P1;PMS_P2;Temp;Humidity;BMP_temperature;BMP_pressure;BME280_temperature;BME280_humidity;BME280_pressure;Samples;Min_cycle;Max_cycle;Signal;HPM_P1;HPM_P2
2021/04/03 00:00:33;;;;;;;0.77;0.68;;;13.80;56.40;;;;;;5103875;28;20055;-35
2021/04/03 00:03:00;;;;;;;0.90;0.68;;;13.90;56.50;;;;;;5103833;28;20020;-35
2021/04/03 00:05:26;;;;;;;0.52;0.50;;;13.80;56.40;;;;;;5103490;28;20089;-35
2021/04/03 00:07:52;;;;;;;0.97;0.70;;;13.80;56.50;;;;;;5104067;28;20035;-35
2021/04/03 00:10:29;;;;;;;1.67;1.00;;;13.80;56.50;;;;;;5103495;28;20052;-35
2021/04/03 00:12:55;;;;;;;0.63;0.52;;;13.80;56.50;;;;;;5135236;27;20381;-35
2021/04/03 00:15:21;;;;;;;0.67;0.60;;;13.80;56.40;;;;;;5131131;27;20114;-35
2021/04/03 00:17:48;;;;;;;2.03;0.60;;;13.80;56.50;;;;;;5124133;28;20050;-38
2021/04/03 00:20:15;;;;;;;1.60;0.70;;;13.80;56.70;;;;;;5105556;28;20043;-35
2021/04/03 00:22:41;;;;;;;;;;;13.80;56.60;;;;;;5098879;28;20083;-35
2021/04/03 00:25:08;;;;;;;1.33;0.82;;;13.70;56.40;;;;;;5103250;28;19908;-35
2021/04/03 00:27:34;;;;;;;0.95;0.75;;;13.70;56.60;;;;;;5103432;28;20036;-35
2021/04/03 00:30:14;;;;;;;1.20;0.60;;;13.70;56.50;;;;;;5103271;28;20035;-35
2021/04/03 00:33:10;;;;;;;0.82;0.60;;;13.70;56.60;;;;;;5126636;27;20494;-35
2021/04/03 00:35:38;;;;;;;1.73;0.70;;;13.70;56.60;;;;;;5079875;28;20045;-35
2021/04/03 00:38:05;;;;;;;1.45;0.77;;;13.70;56.60;;;;;;5080269;28;20095;-35
2021/04/03 00:40:42;;;;;;;1.10;0.65;;;13.70;56.70;;;;;;5080384;28;20045;-35
2021/04/03 00:43:15;;;;;;;1.05;0.90;;;13.70;56.60;;;;;;5080180;28;20036;-35
2021/04/03 00:45:41;;;;;;;1.35;0.75;;;13.60;56.70;;;;;;5079920;28;20037;-35
2021/04/03 00:48:08;;;;;;;0.60;0.60;;;13.60;56.80;;;;;;5080381;28;20040;-35
2021/04/03 00:50:39;;;;;;;1.50;0.90;;;13.60;56.70;;;;;;5070210;28;20115;-35
2021/04/03 00:53:05;;;;;;;0.80;0.70;;;13.60;56.80;;;;;;5060215;28;20048;-35
2021/04/03 00:55:32;;;;;;;1.10;0.90;;;13.60;56.90;;;;;;5043757;28;20041;-35
2021/04/03 00:57:58;;;;;;;1.03;0.80;;;13.60;56.90;;;;;;5060103;28;20063;-35
2021/04/03 01:00:25;;;;;;;0.80;0.80;;;13.60;57.40;;;;;;5043639;28;20037;-35
2021/04/03 01:02:51;;;;;;;1.02;0.90;;;13.60;57.00;;;;;;5076483;28;20067;-35
2021/04/03 01:05:21;;;;;;;1.45;0.85;;;13.60;57.00;;;;;;5079755;28;20174;-35
2021/04/03 01:07:49;;;;;;;0.75;0.60;;;13.60;57.10;;;;;;5080189;28;20028;-34
2021/04/03 01:10:19;;;;;;;1.55;0.98;;;13.60;57.10;;;;;;5078273;28;20530;-35
2021/04/03 01:12:58;;;;;;;0.80;0.60;;;13.50;57.10;;;;;;5133093;27;20042;-35
2021/04/03 01:15:27;;;;;;;1.42;0.60;;;13.50;57.10;;;;;;5122933;28;20036;-35
2021/04/03 01:18:01;;;;;;;1.60;0.90;;;13.50;57.10;;;;;;5105220;28;20028;-35
2021/04/03 01:21:02;;;;;;;1.38;0.88;;;13.50;57.10;;;;;;5105930;28;20031;-35
2021/04/03 01:24:06;;;;;;;0.98;0.70;;;13.50;57.10;;;;;;5091030;28;20070;-35
2021/04/03 01:27:06;;;;;;;0.93;0.75;;;13.50;57.20;;;;;;5102546;28;20035;-34
2021/04/03 01:30:03;;;;;;;0.80;0.70;;;13.50;57.20;;;;;;5108873;28;20023;-33
2021/04/03 01:33:05;;;;;;;0.90;0.73;;;13.50;57.20;;;;;;5143742;28;20023;-35
2021/04/03 01:35:35;;;;;;;0.80;0.80;;;13.40;57.20;;;;;;5128790;28;20037;-34
2021/04/03 01:38:06;;;;;;;0.90;0.73;;;13.40;57.30;;;;;;5125417;28;20054;-35
2021/04/03 01:40:32;;;;;;;1.15;0.80;;;13.40;57.30;;;;;;5108911;28;20027;-35
2021/04/03 01:43:08;;;;;;;1.48;0.95;;;13.40;57.30;;;;;;5108850;28;20020;-35
2021/04/03 01:45:35;;;;;;;1.48;0.70;;;13.40;57.40;;;;;;5105962;28;20388;-35
2021/04/03 01:48:01;;;;;;;0.75;0.65;;;13.40;57.30;;;;;;5104785;28;20080;-35
2021/04/03 01:50:27;;;;;;;1.98;0.80;;;13.30;57.40;;;;;;5104989;28;20830;-35
2021/04/03 01:52:53;;;;;;;1.20;0.80;;;13.30;57.50;;;;;;5095824;28;20024;-35
2021/04/03 01:55:20;;;;;;;1.33;0.90;;;13.30;57.60;;;;;;5102764;28;20111;-35
2021/04/03 01:57:48;;;;;;;1.85;0.80;;;13.30;57.60;;;;;;5094683;28;20080;-35
2021/04/03 02:00:17;;;;;;;0.77;0.70;;;13.30;57.60;;;;;;5106407;28;21171;-35
2021/04/03 02:02:44;;;;;;;0.82;0.70;;;13.30;57.70;;;;;;5109122;28;20035;-34
2021/04/03 02:05:12;;;;;;;1.35;0.90;;;13.30;57.60;;;;;;5126687;28;20020;-34
2021/04/03 02:07:40;;;;;;;1.75;0.98;;;13.30;57.60;;;;;;5126451;28;20028;-34
2021/04/03 02:10:07;;;;;;;1.23;0.73;;;13.20;57.50;;;;;;5086600;28;20064;-35
2021/04/03 02:12:37;;;;;;;1.35;0.80;;;13.20;57.60;;;;;;5084214;28;20055;-35
2021/04/03 02:15:05;;;;;;;0.93;0.80;;;13.20;57.60;;;;;;5085981;28;20047;-34
2021/04/03 02:17:32;;;;;;;1.38;0.77;;;13.20;57.60;;;;;;5085855;28;20564;-34
2021/04/03 02:19:58;;;;;;;1.27;0.90;;;13.20;57.70;;;;;;5085827;28;20028;-35
2021/04/03 02:22:24;;;;;;;0.73;0.60;;;13.20;57.80;;;;;;5085582;28;20028;-35
2021/04/03 02:24:50;;;;;;;1.27;0.90;;;13.20;57.80;;;;;;5084360;28;20023;-35
2021/04/03 02:27:16;;;;;;;0.73;0.70;;;13.10;57.80;;;;;;5083959;28;20099;-35
2021/04/03 02:29:43;;;;;;;1.77;0.90;;;13.10;57.90;;;;;;5084057;28;20602;-35
2021/04/03 02:32:09;;;;;;;0.98;0.88;;;13.10;57.80;;;;;;5067625;28;20033;-35
2021/04/03 02:34:36;;;;;;;1.48;1.00;;;13.10;57.90;;;;;;5085231;28;20044;-35
2021/04/03 02:37:02;;;;;;;1.10;1.00;;;13.10;58.00;;;;;;5085509;28;20078;-34
2021/04/03 02:39:28;;;;;;;1.58;1.10;;;13.00;57.90;;;;;;5085374;28;20024;-34
2021/04/03 02:42:02;;;;;;;1.17;1.08;;;13.00;57.90;;;;;;5085513;28;20621;-35
2021/04/03 02:44:35;;;;;;;1.10;0.75;;;13.00;58.00;;;;;;5083475;28;20043;-35
2021/04/03 02:47:25;;;;;;;1.10;0.90;;;13.00;58.00;;;;;;5083749;28;20027;-34
2021/04/03 02:50:29;;;;;;;0.82;0.80;;;13.00;58.00;;;;;;5084101;28;20735;-35
2021/04/03 02:52:55;;;;;;;1.45;0.90;;;13.00;58.20;;;;;;5081769;28;20032;-34
2021/04/03 02:55:24;;;;;;;1.90;0.83;;;12.90;58.20;;;;;;5100834;28;20058;-34
2021/04/03 02:57:50;;;;;;;1.58;0.85;;;12.90;58.20;;;;;;5084923;28;20021;-35
2021/04/03 03:00:17;;;;;;;0.95;0.85;;;12.90;58.20;;;;;;5100735;28;20571;-34
2021/04/03 03:02:43;;;;;;;0.93;0.73;;;12.90;58.30;;;;;;5085252;28;20086;-35
2021/04/03 03:05:10;;;;;;;1.35;0.90;;;12.90;58.40;;;;;;5063342;28;20112;-35
2021/04/03 03:07:37;;;;;;;1.77;0.90;;;12.90;58.50;;;;;;5063539;28;20051;-34
2021/04/03 03:10:04;;;;;;;;;;;12.90;58.40;;;;;;5065939;28;20052;-35
2021/04/03 03:12:30;;;;;;;0.70;0.60;;;12.90;58.50;;;;;;5083386;28;19930;-35
2021/04/03 03:14:57;;;;;;;1.10;0.70;;;12.80;58.50;;;;;;5084622;28;20016;-34
2021/04/03 03:17:23;;;;;;;1.17;0.90;;;12.80;58.70;;;;;;5083102;28;20082;-34
2021/04/03 03:19:50;;;;;;;1.05;0.80;;;12.80;58.60;;;;;;5100273;28;20020;-35
2021/04/03 03:22:16;;;;;;;1.27;0.95;;;12.80;58.60;;;;;;5079459;28;20029;-34
2021/04/03 03:24:42;;;;;;;2.30;0.90;;;12.80;58.70;;;;;;5077663;28;20032;-35
2021/04/03 03:27:09;;;;;;;1.45;0.80;;;12.80;58.70;;;;;;5083154;28;20047;-35
2021/04/03 03:29:35;;;;;;;3.00;1.20;;;12.80;58.70;;;;;;5083129;28;20039;-34
2021/04/03 03:32:02;;;;;;;0.80;0.80;;;12.70;58.70;;;;;;5082949;28;20103;-42
2021/04/03 03:34:28;;;;;;;1.20;0.97;;;12.70;58.70;;;;;;5082773;28;20056;-35
2021/04/03 03:36:54;;;;;;;1.10;1.00;;;12.70;58.80;;;;;;5084562;28;20052;-35
2021/04/03 03:39:21;;;;;;;1.50;1.02;;;12.70;59.00;;;;;;5083008;28;20021;-34
2021/04/03 03:41:47;;;;;;;1.60;1.00;;;12.70;58.80;;;;;;5083829;28;20036;-35
2021/04/03 03:44:13;;;;;;;1.02;0.80;;;12.70;58.90;;;;;;5082647;28;20032;-34
2021/04/03 03:46:39;;;;;;;0.93;0.80;;;12.60;58.90;;;;;;5082905;28;20411;-35
2021/04/03 03:49:05;;;;;;;0.75;0.70;;;12.60;59.00;;;;;;5084121;28;20024;-35
2021/04/03 03:51:32;;;;;;;1.27;0.80;;;12.60;59.00;;;;;;5084104;28;20028;-34
2021/04/03 03:53:58;;;;;;;1.83;1.07;;;12.60;59.00;;;;;;5083914;28;20021;-35
2021/04/03 03:56:25;;;;;;;2.45;0.90;;;12.60;59.10;;;;;;5083935;28;20401;-34
2021/04/03 03:58:51;;;;;;;1.10;0.80;;;12.60;59.20;;;;;;5083873;28;20021;-35
2021/04/03 04:01:17;;;;;;;1.00;0.90;;;12.60;59.20;;;;;;5080526;28;20055;-35
2021/04/03 04:03:43;;;;;;;1.27;0.70;;;12.60;59.20;;;;;;5063816;28;20100;-34
2021/04/03 04:06:10;;;;;;;1.15;0.88;;;12.50;59.20;;;;;;5063569;28;20362;-35
2021/04/03 04:08:36;;;;;;;1.77;0.82;;;12.50;59.30;;;;;;5074373;28;20043;-35
2021/04/03 04:11:02;;;;;;;1.08;0.88;;;12.50;59.40;;;;;;5085582;28;20031;-35
2021/04/03 04:13:28;;;;;;;0.88;0.77;;;12.50;59.50;;;;;;5085997;28;20032;-34
2021/04/03 04:15:54;;;;;;;1.83;1.00;;;12.50;59.50;;;;;;5107179;28;20118;-34
2021/04/03 04:18:20;;;;;;;1.83;0.90;;;12.50;59.50;;;;;;5124364;28;20024;-34
2021/04/03 04:20:47;;;;;;;1.02;0.80;;;12.40;59.50;;;;;;5126894;27;20027;-34
2021/04/03 04:23:13;;;;;;;1.05;0.80;;;12.40;59.60;;;;;;5123847;28;20020;-34
2021/04/03 04:25:39;;;;;;;1.23;1.00;;;12.40;59.60;;;;;;5123926;28;20045;-35
2021/04/03 04:28:05;;;;;;;1.70;1.05;;;12.40;59.60;;;;;;5124068;28;20107;-35
2021/04/03 04:30:31;;;;;;;2.95;0.85;;;12.40;59.60;;;;;;5124093;28;20027;-34
2021/04/03 04:32:57;;;;;;;1.10;1.00;;;12.40;59.70;;;;;;5106198;27;20034;-34
2021/04/03 04:35:24;;;;;;;1.35;0.88;;;12.40;59.80;;;;;;5144314;27;20454;-34
2021/04/03 04:37:50;;;;;;;0.88;0.70;;;12.40;59.80;;;;;;5144542;27;20020;-35
2021/04/03 04:40:16;;;;;;;1.85;1.00;;;12.30;59.80;;;;;;5140493;27;20035;-35
2021/04/03 04:42:42;;;;;;;1.15;0.95;;;12.30;59.90;;;;;;5140912;27;20035;-35
2021/04/03 04:45:10;;;;;;;1.83;1.17;;;12.30;60.00;;;;;;5125778;27;20031;-34
2021/04/03 04:47:36;;;;;;;1.92;1.00;;;12.30;60.20;;;;;;5144479;27;20023;-34
2021/04/03 04:50:03;;;;;;;1.05;0.88;;;12.30;60.20;;;;;;5144458;27;20034;-35
2021/04/03 04:52:30;;;;;;;1.13;1.00;;;12.30;60.20;;;;;;5138727;27;20525;-34
2021/04/03 04:54:56;;;;;;;1.03;0.87;;;12.30;60.20;;;;;;5123561;28;20036;-34
2021/04/03 04:57:23;;;;;;;1.10;0.90;;;12.20;60.10;;;;;;5123563;28;20272;-34
2021/04/03 04:59:49;;;;;;;1.80;1.08;;;12.20;60.30;;;;;;5123775;28;20029;-34
2021/04/03 05:02:15;;;;;;;2.15;1.20;;;12.20;60.20;;;;;;5111917;28;20028;-34
2021/04/03 05:04:41;;;;;;;2.42;0.93;;;12.20;60.30;;;;;;5103168;28;20031;-34
2021/04/03 05:07:07;;;;;;;1.20;1.08;;;12.20;60.20;;;;;;5103203;28;20028;-34
2021/04/03 05:09:33;;;;;;;1.23;1.00;;;12.20;60.20;;;;;;5103205;28;20055;-41
2021/04/03 05:12:01;;;;;;;1.00;0.90;;;12.20;60.40;;;;;;5140809;28;20156;-35
2021/04/03 05:14:27;;;;;;;;;;;12.20;60.30;;;;;;5144702;28;20047;-35
2021/04/03 05:16:54;;;;;;;1.30;1.10;;;12.10;60.30;;;;;;5144335;28;19915;-34
2021/04/03 05:19:20;;;;;;;2.33;1.10;;;12.10;60.50;;;;;;5144134;28;20069;-35
2021/04/03 05:21:46;;;;;;;1.13;1.00;;;12.10;60.60;;;;;;5140157;28;20050;-34
2021/04/03 05:24:12;;;;;;;1.65;1.35;;;12.10;60.50;;;;;;5123516;28;20112;-34
2021/04/03 05:26:38;;;;;;;1.45;1.02;;;12.10;60.50;;;;;;5125889;28;20019;-34
2021/04/03 05:29:04;;;;;;;1.45;0.90;;;12.10;60.70;;;;;;5123562;28;20039;-34
2021/04/03 05:31:30;;;;;;;1.70;1.10;;;12.00;60.60;;;;;;5128980;28;20034;-34
2021/04/03 05:33:57;;;;;;;1.75;1.00;;;12.00;60.70;;;;;;5143929;27;20130;-34
2021/04/03 05:36:23;;;;;;;1.13;1.00;;;12.00;60.70;;;;;;5147825;27;20031;-34
2021/04/03 05:38:49;;;;;;;1.90;1.10;;;12.00;60.80;;;;;;5148361;27;20027;-34
2021/04/03 05:41:15;;;;;;;1.15;0.98;;;12.00;60.90;;;;;;5116807;28;20124;-34
2021/04/03 05:43:41;;;;;;;2.10;1.13;;;11.90;60.90;;;;;;5127430;28;20015;-34
2021/04/03 05:46:07;;;;;;;1.30;1.20;;;11.90;60.90;;;;;;5108751;28;20083;-34
2021/04/03 05:48:33;;;;;;;1.48;1.08;;;11.90;60.90;;;;;;5127293;28;20027;-34
2021/04/03 05:51:00;;;;;;;1.58;1.38;;;11.90;60.90;;;;;;5127169;28;20020;-34
2021/04/03 05:53:27;;;;;;;1.83;1.10;;;11.90;61.00;;;;;;5141234;27;20027;-34
2021/04/03 05:55:56;;;;;;;1.45;1.15;;;11.90;60.90;;;;;;5147581;27;20295;-34
2021/04/03 05:58:23;;;;;;;1.38;1.00;;;11.90;60.90;;;;;;5147923;27;20027;-34
2021/04/03 06:00:51;;;;;;;1.65;1.35;;;11.90;61.00;;;;;;5147743;27;20023;-34
2021/04/03 06:03:17;;;;;;;2.63;1.02;;;11.90;61.00;;;;;;5088586;28;20031;-34
2021/04/03 06:05:44;;;;;;;1.92;1.10;;;11.90;61.20;;;;;;5106419;28;20063;-34
2021/04/03 06:08:10;;;;;;;2.33;1.35;;;11.90;61.30;;;;;;5106378;28;20031;-35
2021/04/03 06:10:37;;;;;;;1.35;0.85;;;11.90;61.20;;;;;;5115876;27;20031;-34
2021/04/03 06:13:03;;;;;;;1.60;1.33;;;11.80;61.20;;;;;;5126412;28;20148;-34
2021/04/03 06:15:32;;;;;;;1.55;1.13;;;11.80;61.30;;;;;;5108523;28;20392;-34
2021/04/03 06:17:59;;;;;;;1.80;1.10;;;11.80;61.30;;;;;;5126597;28;20030;-35
2021/04/03 06:20:35;;;;;;;1.70;1.10;;;11.80;61.30;;;;;;5127777;27;20032;-34
2021/04/03 06:23:01;;;;;;;1.92;1.30;;;11.80;61.30;;;;;;5136594;27;20024;-34
2021/04/03 06:25:28;;;;;;;1.40;1.23;;;11.80;61.50;;;;;;5126477;28;20054;-34
2021/04/03 06:28:09;;;;;;;1.65;1.00;;;11.80;61.60;;;;;;5139267;27;20027;-34
2021/04/03 06:30:37;;;;;;;1.85;1.45;;;11.70;61.50;;;;;;5147013;27;20024;-34
2021/04/03 06:33:19;;;;;;;1.30;1.10;;;11.70;61.60;;;;;;5128585;27;20035;-34
2021/04/03 06:35:46;;;;;;;1.42;1.20;;;11.70;61.60;;;;;;5126113;28;20144;-35
2021/04/03 06:38:23;;;;;;;1.13;0.98;;;11.70;61.60;;;;;;5125968;27;20027;-34
2021/04/03 06:40:50;;;;;;;2.55;1.40;;;11.70;61.80;;;;;;5146710;27;20046;-34
2021/04/03 06:43:17;;;;;;;2.97;1.33;;;11.70;61.70;;;;;;5146954;27;20037;-34
2021/04/03 06:45:46;;;;;;;1.33;1.23;;;11.60;61.80;;;;;;5146430;27;20069;-34
2021/04/03 06:48:14;;;;;;;1.70;1.27;;;11.60;61.80;;;;;;5146727;27;20023;-35
2021/04/03 06:50:47;;;;;;;2.25;1.15;;;11.60;61.90;;;;;;5142836;27;20028;-40
2021/04/03 06:53:15;;;;;;;1.55;1.33;;;11.60;61.80;;;;;;5114101;28;20050;-34
2021/04/03 06:55:42;;;;;;;;;;;11.60;61.90;;;;;;5106046;28;20028;-35
2021/04/03 06:58:08;;;;;;;1.33;1.17;;;11.60;61.90;;;;;;5105271;28;19912;-34
2021/04/03 07:00:35;;;;;;;1.52;1.17;;;11.60;62.00;;;;;;5105582;28;20032;-39
2021/04/03 07:03:23;;;;;;;2.15;1.10;;;11.50;62.10;;;;;;5105329;28;20084;-34
2021/04/03 07:05:49;;;;;;;1.57;1.17;;;11.50;62.10;;;;;;5120659;28;20028;-34
2021/04/03 07:08:15;;;;;;;1.75;1.17;;;11.50;62.10;;;;;;5120569;28;20032;-34
2021/04/03 07:10:41;;;;;;;1.35;1.10;;;11.50;62.10;;;;;;5120672;28;20054;-35
2021/04/03 07:13:10;;;;;;;1.38;1.17;;;11.50;62.20;;;;;;5121414;28;20023;-35
2021/04/03 07:15:37;;;;;;;1.60;1.15;;;11.40;62.30;;;;;;5125413;28;20579;-34
2021/04/03 07:18:06;;;;;;;1.90;1.00;;;11.50;62.30;;;;;;5107032;28;20054;-35
2021/04/03 07:20:34;;;;;;;1.33;1.10;;;11.50;62.30;;;;;;5110270;27;20091;-34
2021/04/03 07:23:01;;;;;;;0.85;0.85;;;11.50;62.30;;;;;;5145769;27;20056;-34
2021/04/03 07:25:32;;;;;;;1.27;1.00;;;11.40;62.30;;;;;;5146080;27;20046;-34
2021/04/03 07:27:58;;;;;;;1.60;1.20;;;11.50;62.40;;;;;;5145554;27;20034;-34
2021/04/03 07:30:40;;;;;;;1.70;1.40;;;11.40;62.30;;;;;;5125203;27;20031;-34
2021/04/03 07:33:07;;;;;;;2.05;1.50;;;11.40;62.40;;;;;;5126778;27;20046;-34
2021/04/03 07:35:37;;;;;;;2.20;1.38;;;11.40;62.40;;;;;;5125116;28;20032;-34
2021/04/03 07:38:11;;;;;;;1.42;1.10;;;11.30;62.30;;;;;;5124804;28;20020;-34
2021/04/03 07:40:39;;;;;;;1.40;1.05;;;11.30;62.40;;;;;;5125077;28;20027;-34
2021/04/03 07:43:39;;;;;;;2.35;1.35;;;11.30;62.50;;;;;;5124987;28;20023;-34
2021/04/03 07:46:12;;;;;;;1.77;1.20;;;11.30;62.50;;;;;;5124998;28;20012;-34
2021/04/03 07:48:38;;;;;;;2.15;1.30;;;11.30;62.50;;;;;;5124750;28;20027;-34
2021/04/03 07:51:12;;;;;;;2.35;1.27;;;11.30;62.60;;;;;;5117414;28;20036;-34
2021/04/03 07:53:45;;;;;;;1.90;1.40;;;11.30;62.60;;;;;;5119527;28;20043;-35
2021/04/03 07:56:13;;;;;;;1.20;1.08;;;11.20;62.60;;;;;;5124592;27;20039;-34
2021/04/03 07:58:49;;;;;;;1.52;1.30;;;11.20;62.60;;;;;;5123884;28;20020;-34
2021/04/03 08:01:15;;;;;;;1.67;1.35;;;11.20;62.80;;;;;;5121397;28;20024;-35
2021/04/03 08:03:42;;;;;;;1.43;1.17;;;11.20;62.90;;;;;;5104407;28;20019;-34
2021/04/03 08:06:09;;;;;;;2.97;1.20;;;11.20;62.80;;;;;;5085802;28;20052;-34
2021/04/03 08:08:38;;;;;;;1.80;1.20;;;11.20;62.80;;;;;;5103700;28;20093;-34
2021/04/03 08:11:14;;;;;;;1.30;1.00;;;11.20;62.80;;;;;;5086271;28;20032;-34
2021/04/03 08:13:47;;;;;;;2.17;1.40;;;11.20;63.00;;;;;;5104082;28;20092;-34
2021/04/03 08:16:14;;;;;;;1.90;1.20;;;11.10;63.60;;;;;;5117765;28;20035;-34
2021/04/03 08:18:41;;;;;;;1.58;1.17;;;11.10;62.90;;;;;;5126626;27;20031;-34
2021/04/03 08:21:08;;;;;;;1.73;1.13;;;11.10;63.00;;;;;;5123969;28;20065;-34
2021/04/03 08:23:38;;;;;;;2.60;1.20;;;11.10;63.10;;;;;;5109339;28;20122;-34
2021/04/03 08:26:04;;;;;;;2.17;1.05;;;11.10;63.00;;;;;;5103816;28;20738;-34
2021/04/03 08:28:31;;;;;;;2.35;1.40;;;11.10;63.10;;;;;;5103630;28;20024;-35
2021/04/03 08:30:57;;;;;;;1.48;1.10;;;11.10;63.10;;;;;;5103827;28;20039;-35
2021/04/03 08:33:29;;;;;;;2.13;1.60;;;11.00;63.10;;;;;;5118976;27;20016;-35
2021/04/03 08:35:55;;;;;;;1.80;1.02;;;11.00;63.10;;;;;;5126936;27;20035;-34
2021/04/03 08:38:23;;;;;;;2.28;1.40;;;11.00;63.10;;;;;;5144247;27;20027;-34
2021/04/03 08:40:51;;;;;;;1.20;1.10;;;11.00;63.20;;;;;;5144538;27;20031;-34
2021/04/03 08:43:18;;;;;;;2.85;1.55;;;11.00;63.20;;;;;;5144489;27;20028;-34
2021/04/03 08:45:44;;;;;;;;;;;11.00;63.30;;;;;;5144931;27;20023;-34
2021/04/03 08:48:11;;;;;;;2.33;1.00;;;11.00;63.20;;;;;;5144212;27;20271;-34
2021/04/03 08:50:38;;;;;;;2.25;1.38;;;10.90;63.20;;;;;;5144317;27;20043;-34
2021/04/03 08:53:05;;;;;;;1.52;1.13;;;10.90;63.30;;;;;;5133433;27;20032;-34
2021/04/03 08:55:31;;;;;;;1.88;1.30;;;10.90;63.30;;;;;;5123778;28;20036;-34
2021/04/03 08:58:00;;;;;;;1.55;1.00;;;10.90;63.30;;;;;;5123597;28;20027;-34
2021/04/03 09:00:27;;;;;;;1.33;1.02;;;10.90;63.40;;;;;;5105495;28;20024;-34
2021/04/03 09:02:53;;;;;;;2.15;1.27;;;10.90;63.40;;;;;;5106785;28;20035;-34
2021/04/03 09:05:19;;;;;;;1.08;0.98;;;10.90;63.50;;;;;;5103465;28;20024;-34
2021/04/03 09:07:46;;;;;;;2.13;1.25;;;10.80;63.40;;;;;;5084876;28;20100;-34
2021/04/03 09:10:23;;;;;;;1.55;1.10;;;10.80;63.50;;;;;;5108021;28;20047;-34
2021/04/03 09:12:49;;;;;;;1.70;1.33;;;10.80;63.50;;;;;;5126181;28;20063;-34
2021/04/03 09:15:24;;;;;;;1.38;1.00;;;10.80;63.50;;;;;;5127813;28;20047;-34
2021/04/03 09:17:56;;;;;;;1.45;1.23;;;10.80;63.60;;;;;;5127792;28;20107;-34
2021/04/03 09:20:28;;;;;;;1.35;1.13;;;10.80;63.70;;;;;;5128712;27;20024;-34
2021/04/03 09:23:02;;;;;;;1.27;1.15;;;10.80;63.80;;;;;;5138731;27;20031;-34
2021/04/03 09:25:29;;;;;;;1.50;1.27;;;10.70;63.70;;;;;;5127636;28;20024;-34
2021/04/03 09:27:59;;;;;;;1.58;1.33;;;10.70;63.80;;;;;;5127795;28;20019;-34
2021/04/03 09:30:43;;;;;;;2.08;1.38;;;10.70;63.70;;;;;;5127541;28;20070;-34
2021/04/03 09:33:16;;;;;;;1.50;1.20;;;10.70;63.70;;;;;;5108930;27;20040;-34
2021/04/03 09:35:42;;;;;;;1.50;1.10;;;10.70;63.80;;;;;;5147438;27;20066;-34
2021/04/03 09:38:08;;;;;;;1.45;1.30;;;10.70;63.90;;;;;;5147721;27;20023;-34
2021/04/03 09:40:45;;;;;;;1.77;1.15;;;10.70;64.00;;;;;;5147499;27;20073;-34
2021/04/03 09:43:12;;;;;;;1.60;1.40;;;10.70;63.90;;;;;;5147963;27;20019;-34
2021/04/03 09:45:38;;;;;;;1.38;1.20;;;10.70;63.90;;;;;;5147963;27;20027;-34
2021/04/03 09:48:07;;;;;;;1.90;1.35;;;10.60;63.80;;;;;;5147701;27;20414;-34
2021/04/03 09:50:34;;;;;;;2.13;1.17;;;10.60;63.80;;;;;;5147370;27;20043;-34
2021/04/03 09:53:10;;;;;;;1.10;0.95;;;10.60;63.90;;;;;;5137440;27;20035;-34
2021/04/03 09:55:36;;;;;;;1.63;1.40;;;10.60;64.00;;;;;;5126947;28;20949;-34
2021/04/03 09:58:03;;;;;;;1.83;1.35;;;10.60;64.10;;;;;;5127079;28;20055;-34
2021/04/03 10:00:29;;;;;;;2.00;1.37;;;10.60;64.10;;;;;;5126790;28;20023;-34
2021/04/03 10:02:55;;;;;;;1.65;1.40;;;10.60;64.10;;;;;;5109269;28;20283;-34
2021/04/03 10:05:22;;;;;;;2.08;1.27;;;10.50;64.00;;;;;;5106653;28;20036;-34
2021/04/03 10:07:48;;;;;;;1.33;1.10;;;10.50;64.10;;;;;;5088079;28;20034;-34
2021/04/03 10:10:14;;;;;;;1.90;1.35;;;10.50;64.10;;;;;;5125519;27;20126;-34
2021/04/03 10:12:41;;;;;;;2.10;1.40;;;10.50;64.10;;;;;;5147556;27;20019;-34
2021/04/03 10:15:07;;;;;;;1.33;1.23;;;10.50;64.20;;;;;;5147112;27;20555;-34
2021/04/03 10:17:34;;;;;;;1.10;0.93;;;10.50;64.20;;;;;;5129477;27;20039;-35
2021/04/03 10:20:00;;;;;;;2.40;1.20;;;10.50;64.30;;;;;;5105400;28;20024;-34
2021/04/03 10:22:26;;;;;;;1.92;1.38;;;10.50;64.20;;;;;;5137836;27;20107;-34
2021/04/03 10:24:54;;;;;;;2.08;1.50;;;10.40;64.30;;;;;;5130077;27;20426;-37
2021/04/03 10:27:20;;;;;;;1.45;1.20;;;10.40;64.30;;;;;;5126416;28;20028;-34
2021/04/03 10:29:46;;;;;;;1.80;1.60;;;10.40;64.30;;;;;;5126229;28;20015;-34
2021/04/03 10:32:13;;;;;;;2.58;1.40;;;10.40;64.40;;;;;;5137664;27;20765;-35
2021/04/03 10:34:39;;;;;;;1.15;1.05;;;10.40;64.50;;;;;;5146980;27;20027;-34
2021/04/03 10:37:05;;;;;;;1.58;1.27;;;10.30;64.50;;;;;;5146602;27;20027;-33
2021/04/03 10:39:31;;;;;;;2.40;1.50;;;10.40;64.50;;;;;;5146466;27;20027;-35
2021/04/03 10:41:57;;;;;;;1.65;1.23;;;10.40;64.40;;;;;;5146810;27;20111;-34
2021/04/03 10:44:23;;;;;;;1.38;1.27;;;10.30;64.50;;;;;;5146670;27;20027;-34
2021/04/03 10:46:49;;;;;;;2.20;1.20;;;10.30;64.40;;;;;;5146520;27;20024;-34
2021/04/03 10:49:15;;;;;;;3.50;1.27;;;10.30;64.50;;;;;;5146640;27;20024;-34
2021/04/03 10:51:42;;;;;;;1.98;0.98;;;10.30;64.50;;;;;;5146018;27;20019;-34
2021/04/03 10:54:08;;;;;;;2.30;1.77;;;10.30;64.50;;;;;;5126788;27;20396;-34
2021/04/03 10:56:34;;;;;;;1.60;1.30;;;10.30;64.60;;;;;;5125773;28;20106;-34
2021/04/03 10:59:00;;;;;;;1.95;1.33;;;10.20;64.60;;;;;;5125816;28;20015;-34
2021/04/03 11:01:26;;;;;;;2.42;1.20;;;10.20;64.60;;;;;;5120521;28;20024;-34
2021/04/03 11:03:52;;;;;;;2.03;1.40;;;10.20;64.60;;;;;;5105321;28;20024;-33
2021/04/03 11:06:18;;;;;;;1.35;1.23;;;10.20;64.80;;;;;;5105212;28;20754;-35
2021/04/03 11:08:45;;;;;;;2.53;1.38;;;10.20;64.70;;;;;;5104877;28;20120;-34
2021/04/03 11:11:11;;;;;;;1.65;1.30;;;10.20;64.80;;;;;;5104990;28;20463;-34
2021/04/03 11:13:37;;;;;;;1.58;1.33;;;10.20;64.80;;;;;;5112211;28;20030;-34
2021/04/03 11:16:03;;;;;;;2.08;1.55;;;10.20;64.80;;;;;;5125309;28;20866;-34
2021/04/03 11:18:29;;;;;;;3.10;1.42;;;10.20;64.80;;;;;;5125394;28;20046;-34
2021/04/03 11:20:55;;;;;;;1.50;1.38;;;10.10;64.70;;;;;;5131044;27;20357;-34
2021/04/03 11:23:22;;;;;;;2.47;1.48;;;10.10;64.80;;;;;;5132538;27;20024;-34
2021/04/03 11:25:48;;;;;;;1.58;1.33;;;10.10;64.80;;;;;;5125522;27;20037;-34
2021/04/03 11:28:14;;;;;;;2.13;1.50;;;10.10;64.70;;;;;;5125192;28;20104;-34
2021/04/03 11:30:40;;;;;;;2.13;1.50;;;10.10;64.70;;;;;;5125022;28;20024;-34
2021/04/03 11:33:06;;;;;;;1.85;1.40;;;10.10;64.80;;;;;;5143317;27;20034;-34
2021/04/03 11:35:35;;;;;;;1.65;1.20;;;10.10;64.90;;;;;;5144306;27;20035;-34
2021/04/03 11:38:02;;;;;;;2.70;1.40;;;10.00;64.90;;;;;;5144462;27;20041;-34
2021/04/03 11:40:29;;;;;;;1.55;1.45;;;10.00;64.90;;;;;;5145192;27;20019;-34
2021/04/03 11:42:55;;;;;;;2.53;1.45;;;10.00;64.90;;;;;;5145494;27;20043;-34
2021/04/03 11:45:25;;;;;;;1.60;1.48;;;10.00;65.00;;;;;;5145611;27;20475;-34
2021/04/03 11:47:52;;;;;;;2.13;1.70;;;10.00;65.00;;;;;;5145323;27;20031;-34
2021/04/03 11:50:18;;;;;;;1.87;1.33;;;10.00;65.00;;;;;;5144510;27;20027;-34
2021/04/03 11:52:44;;;;;;;1.85;1.40;;;10.00;65.00;;;;;;5124513;28;20264;-34
2021/04/03 11:55:11;;;;;;;2.10;1.40;;;10.00;65.10;;;;;;5124662;27;20031;-34
2021/04/03 11:57:38;;;;;;;1.63;1.27;;;9.90;65.10;;;;;;5124930;28;20035;-35
2021/04/03 12:00:05;;;;;;;2.22;1.67;;;9.90;65.20;;;;;;5124498;28;20032;-34
2021/04/03 12:02:31;;;;;;;1.70;1.40;;;10.00;65.10;;;;;;5110293;28;20020;-34
2021/04/03 12:04:57;;;;;;;3.53;1.58;;;9.90;65.10;;;;;;5104192;28;20035;-34
2021/04/03 12:07:24;;;;;;;2.10;1.55;;;9.90;65.20;;;;;;5103698;28;20028;-34
2021/04/03 12:09:50;;;;;;;2.83;1.60;;;9.90;65.30;;;;;;5103882;28;20062;-34
2021/04/03 12:12:17;;;;;;;1.60;1.50;;;9.90;65.30;;;;;;5103567;28;20034;-34
2021/04/03 12:14:43;;;;;;;2.08;1.40;;;9.90;66.00;;;;;;5119142;27;20049;-34
2021/04/03 12:17:09;;;;;;;1.77;1.50;;;9.90;65.20;;;;;;5127314;27;20020;-34
2021/04/03 12:19:35;;;;;;;3.38;1.60;;;9.90;65.20;;;;;;5123632;28;20082;-34
2021/04/03 12:22:01;;;;;;;1.80;1.63;;;9.80;65.30;;;;;;5128516;27;20047;-34
2021/04/03 12:24:27;;;;;;;3.25;1.77;;;9.80;65.20;;;;;;5124103;28;20061;-34
2021/04/03 12:26:53;;;;;;;2.15;1.42;;;9.80;65.20;;;;;;5124125;28;20031;-34
2021/04/03 12:29:20;;;;;;;3.42;1.80;;;9.80;65.20;;;;;;5123546;28;20100;-35
2021/04/03 12:31:46;;;;;;;1.98;1.77;;;9.80;65.30;;;;;;5131604;27;20048;-34
2021/04/03 12:34:12;;;;;;;2.45;1.75;;;9.80;65.30;;;;;;5144596;27;20027;-34
2021/04/03 12:36:38;;;;;;;2.33;1.80;;;9.80;65.30;;;;;;5144294;27;20035;-34
2021/04/03 12:39:04;;;;;;;1.85;1.60;;;9.80;65.30;;;;;;5144053;27;20023;-34
2021/04/03 12:41:31;;;;;;;2.40;1.77;;;9.80;65.30;;;;;;5125956;27;20048;-34
2021/04/03 12:43:57;;;;;;;2.15;1.80;;;9.80;65.30;;;;;;5144005;27;20027;-34
2021/04/03 12:46:23;;;;;;;1.98;1.55;;;9.80;66.00;;;;;;5144292;27;20030;-34
2021/04/03 12:48:49;;;;;;;2.53;1.60;;;9.80;65.30;;;;;;5144127;27;20062;-34
2021/04/03 12:51:15;;;;;;;3.05;1.80;;;9.80;65.30;;;;;;5135340;27;20028;-34
2021/04/03 12:53:41;;;;;;;2.05;1.60;;;9.80;65.30;;;;;;5105168;28;20072;-34